sensor_id;sensor_type;location;lat;lon;timestamp;pressure;altitude;pressure_sealevel;temperature;humidity
44255;BME280;29933;47.226;15.734;2022-09-01T00:00:22;96397.91;;;13.48;100.00
44255;BME280;29933;47.226;15.734;2022-09-01T00:02:48;96406.03;;;13.55;100.00
44255;BME280;29933;47.226;15.734;2022-09-01T00:05:15;96411.84;;;13.57;100.00
44255;BME280;29933;47.226;15.734;2022-09-01T00:07:40;96407.97;;;13.55;100.00
44255;BME280;29933;47.226;15.734;2022-09-01T00:10:07;96398.63;;;13.56;100.00
44255;BME280;29933;47.226;15.734;2022-09-01T00:12:33;96400.16;;;13.57;100.00
44255;BME280;29933;47.226;15.734;2022-09-01T00:14:59;96407.59;;;13.56;100.00
44255;BME280;29933;47.226;15.734;2022-09-01T00:17:25;96398.66;;;13.52;100.00
44255;BME280;29933;47.226;15.734;2022-09-01T00:19:51;96397.91;;;13.48;100.00
44255;BME280;29933;47.226;15.734;2022-09-01T00:22:17;96396.44;;;13.40;100.00
44255;BME280;29933;47.226;15.734;2022-09-01T00:24:42;96401.53;;;13.38;100.00
44255;BME280;29933;47.226;15.734;2022-09-01T00:27:08;96396.84;;;13.35;100.00
44255;BME280;29933;47.226;15.734;2022-09-01T00:29:34;96398.34;;;13.43;100.00
44255;BME280;29933;47.226;15.734;2022-09-01T00:32:00;96406.50;;;13.47;100.00
44255;BME280;29933;47.226;15.734;2022-09-01T00:34:26;96407.28;;;13.47;100.00
44255;BME280;29933;47.226;15.734;2022-09-01T00:36:51;96406.97;;;13.38;100.00
44255;BME280;29933;47.226;15.734;2022-09-01T00:39:17;96406.59;;;13.32;100.00
44255;BME280;29933;47.226;15.734;2022-09-01T00:41:43;96410.13;;;13.33;100.00
44255;BME280;29933;47.226;15.734;2022-09-01T00:44:13;96403.16;;;13.28;100.00
44255;BME280;29933;47.226;15.734;2022-09-01T00:46:45;96406.66;;;13.25;100.00
44255;BME280;29933;47.226;15.734;2022-09-01T00:49:20;96409.78;;;13.23;100.00
44255;BME280;29933;47.226;15.734;2022-09-01T00:51:50;96412.16;;;13.21;100.00
44255;BME280;29933;47.226;15.734;2022-09-01T00:54:21;96406.69;;;13.21;100.00
44255;BME280;29933;47.226;15.734;2022-09-01T00:56:47;96406.69;;;13.21;100.00
44255;BME280;29933;47.226;15.734;2022-09-01T00:59:14;96401.63;;;13.23;100.00
44255;BME280;29933;47.226;15.734;2022-09-01T01:01:42;96401.69;;;13.16;100.00
44255;BME280;29933;47.226;15.734;2022-09-01T01:04:11;96404.03;;;13.18;100.00
44255;BME280;29933;47.226;15.734;2022-09-01T01:06:43;96403.19;;;13.24;100.00
44255;BME280;29933;47.226;15.734;2022-09-01T01:09:18;96402.00;;;13.25;100.00
44255;BME280;29933;47.226;15.734;2022-09-01T01:11:45;96399.28;;;13.25;100.00
44255;BME280;29933;47.226;15.734;2022-09-01T01:14:13;96401.63;;;13.23;100.00
44255;BME280;29933;47.226;15.734;2022-09-01T01:16:41;96401.63;;;13.23;100.00
44255;BME280;29933;47.226;15.734;2022-09-01T01:22:21;96409.72;;;13.34;100.00
44255;BME280;29933;47.226;15.734;2022-09-01T01:25:07;96400.38;;;13.32;100.00
44255;BME280;29933;47.226;15.734;2022-09-01T01:27:34;96400.75;;;13.30;100.00
44255;BME280;29933;47.226;15.734;2022-09-01T01:30:01;96405.47;;;13.29;100.00
44255;BME280;29933;47.226;15.734;2022-09-01T01:32:28;96402.72;;;13.29;100.00
44255;BME280;29933;47.226;15.734;2022-09-01T01:34:54;96393.78;;;13.29;100.00
44255;BME280;29933;47.226;15.734;2022-09-01T01:37:21;96396.53;;;13.25;100.00
44255;BME280;29933;47.226;15.734;2022-09-01T01:39:49;96397.75;;;13.21;100.00
44255;BME280;29933;47.226;15.734;2022-09-01T01:42:15;96401.22;;;13.21;100.00
44255;BME280;29933;47.226;15.734;2022-09-01T01:44:41;96402.00;;;13.25;100.00
44255;BME280;29933;47.226;15.734;2022-09-01T01:47:11;96393.44;;;13.23;100.00
44255;BME280;29933;47.226;15.734;2022-09-01T01:49:38;96394.25;;;13.20;100.00
44255;BME280;29933;47.226;15.734;2022-09-01T01:52:10;96394.63;;;13.19;100.00
44255;BME280;29933;47.226;15.734;2022-09-01T01:54:37;96389.97;;;13.19;100.00
44255;BME280;29933;47.226;15.734;2022-09-01T01:57:03;96388.00;;;13.20;100.00
44255;BME280;29933;47.226;15.734;2022-09-01T01:59:29;96391.53;;;13.20;100.00
44255;BME280;29933;47.226;15.734;2022-09-01T02:01:55;96393.44;;;13.23;100.00
44255;BME280;29933;47.226;15.734;2022-09-01T02:04:22;96384.88;;;13.21;100.00
44255;BME280;29933;47.226;15.734;2022-09-01T02:06:48;96389.94;;;13.23;100.00
44255;BME280;29933;47.226;15.734;2022-09-01T02:09:17;96386.81;;;13.24;100.00
44255;BME280;29933;47.226;15.734;2022-09-01T02:11:44;96376.22;;;13.30;100.00
44255;BME280;29933;47.226;15.734;2022-09-01T02:14:10;96382.47;;;13.31;100.00
44255;BME280;29933;47.226;15.734;2022-09-01T02:16:38;96392.19;;;13.32;100.00
44255;BME280;29933;47.226;15.734;2022-09-01T02:19:06;96391.09;;;13.25;100.00
44255;BME280;29933;47.226;15.734;2022-09-01T02:21:33;96383.34;;;13.20;100.00
44255;BME280;29933;47.226;15.734;2022-09-01T02:24:01;96388.03;;;13.16;100.00
44255;BME280;29933;47.226;15.734;2022-09-01T02:26:32;96388.09;;;13.09;100.00
44255;BME280;29933;47.226;15.734;2022-09-01T02:29:02;96386.22;;;13.02;100.00
44255;BME280;29933;47.226;15.734;2022-09-01T02:31:34;96380.78;;;12.99;100.00
44255;BME280;29933;47.226;15.734;2022-09-01T02:34:01;96382.34;;;13.00;100.00
44255;BME280;29933;47.226;15.734;2022-09-01T02:36:27;96381.94;;;13.01;100.00
44255;BME280;29933;47.226;15.734;2022-09-01T02:38:53;96382.78;;;12.94;100.00
44255;BME280;29933;47.226;15.734;2022-09-01T02:41:19;96388.22;;;12.94;100.00
44255;BME280;29933;47.226;15.734;2022-09-01T02:43:46;96385.88;;;12.96;100.00
44255;BME280;29933;47.226;15.734;2022-09-01T02:46:12;96367.59;;;12.93;100.00
44255;BME280;29933;47.226;15.734;2022-09-01T02:48:41;96379.31;;;12.90;100.00
44255;BME280;29933;47.226;15.734;2022-09-01T02:51:10;96380.06;;;12.94;100.00
44255;BME280;29933;47.226;15.734;2022-09-01T02:53:37;96381.22;;;12.93;100.00
44255;BME280;29933;47.226;15.734;2022-09-01T02:56:05;96373.88;;;12.90;100.00
44255;BME280;29933;47.226;15.734;2022-09-01T02:58:34;96376.16;;;12.95;100.00
44255;BME280;29933;47.226;15.734;2022-09-01T03:01:12;96374.16;;;13.00;100.00
44255;BME280;29933;47.226;15.734;2022-09-01T03:03:39;96371.06;;;12.98;100.00
44255;BME280;29933;47.226;15.734;2022-09-01T03:06:05;96374.19;;;12.96;100.00
44255;BME280;29933;47.226;15.734;2022-09-01T03:08:31;96368.78;;;12.92;100.00
44255;BME280;29933;47.226;15.734;2022-09-01T03:11:02;96368.41;;;12.90;100.00
44255;BME280;29933;47.226;15.734;2022-09-01T03:13:29;96367.22;;;12.91;100.00
44255;BME280;29933;47.226;15.734;2022-09-01T03:15:55;96365.31;;;12.85;100.00
44255;BME280;29933;47.226;15.734;2022-09-01T03:18:21;96366.50;;;12.84;100.00
44255;BME280;29933;47.226;15.734;2022-09-01T03:20:47;96364.19;;;12.82;100.00
44255;BME280;29933;47.226;15.734;2022-09-01T03:23:17;96362.22;;;12.83;100.00
44255;BME280;29933;47.226;15.734;2022-09-01T03:25:44;96358.72;;;12.82;100.00
44255;BME280;29933;47.226;15.734;2022-09-01T03:28:12;96352.53;;;12.82;100.00
44255;BME280;29933;47.226;15.734;2022-09-01T03:30:43;96355.25;;;12.82;100.00
44255;BME280;29933;47.226;15.734;2022-09-01T03:33:09;96355.25;;;12.82;100.00
44255;BME280;29933;47.226;15.734;2022-09-01T03:35:35;96352.13;;;12.79;100.00
44255;BME280;29933;47.226;15.734;2022-09-01T03:38:02;96357.59;;;12.79;100.00
44255;BME280;29933;47.226;15.734;2022-09-01T03:40:31;96351.75;;;12.77;100.00
44255;BME280;29933;47.226;15.734;2022-09-01T03:43:03;96357.22;;;12.74;100.00
44255;BME280;29933;47.226;15.734;2022-09-01T03:45:30;96351.00;;;12.73;100.00
44255;BME280;29933;47.226;15.734;2022-09-01T03:48:07;96348.69;;;12.75;100.00
44255;BME280;29933;47.226;15.734;2022-09-01T03:50:39;96354.50;;;12.74;100.00
44255;BME280;29933;47.226;15.734;2022-09-01T03:53:16;96345.59;;;12.70;100.00
44255;BME280;29933;47.226;15.734;2022-09-01T03:55:44;96345.22;;;12.68;100.00
44255;BME280;29933;47.226;15.734;2022-09-01T03:58:11;96346.03;;;12.64;100.00
44255;BME280;29933;47.226;15.734;2022-09-01T04:00:42;96342.47;;;12.68;100.00
44255;BME280;29933;47.226;15.734;2022-09-01T04:03:10;96347.16;;;12.67;100.00
44255;BME280;29933;47.226;15.734;2022-09-01T04:05:37;96335.47;;;12.70;100.00
44255;BME280;29933;47.226;15.734;2022-09-01T04:08:06;96349.88;;;12.71;100.00
44255;BME280;29933;47.226;15.734;2022-09-01T04:10:36;96340.88;;;12.74;100.00
44255;BME280;29933;47.226;15.734;2022-09-01T04:13:03;96344.72;;;12.80;100.00
44255;BME280;29933;47.226;15.734;2022-09-01T04:15:29;96339.28;;;12.80;100.00
44255;BME280;29933;47.226;15.734;2022-09-01T04:17:56;96346.28;;;12.81;100.00
44255;BME280;29933;47.226;15.734;2022-09-01T04:20:39;96343.97;;;12.79;100.00
44255;BME280;29933;47.226;15.734;2022-09-01T04:26:03;96346.31;;;12.77;100.00
44255;BME280;29933;47.226;15.734;2022-09-01T04:28:43;96344.34;;;12.82;100.00
44255;BME280;29933;47.226;15.734;2022-09-01T04:31:18;96342.03;;;12.76;100.00
44255;BME280;29933;47.226;15.734;2022-09-01T04:33:46;96349.47;;;12.69;100.00
44255;BME280;29933;47.226;15.734;2022-09-01T04:36:15;96343.69;;;12.67;100.00
44255;BME280;29933;47.226;15.734;2022-09-01T04:38:45;96342.06;;;12.73;100.00
44255;BME280;29933;47.226;15.734;2022-09-01T04:41:11;96341.25;;;12.76;100.00
44255;BME280;29933;47.226;15.734;2022-09-01T04:43:46;96343.56;;;12.81;100.00
44255;BME280;29933;47.226;15.734;2022-09-01T04:46:14;96342.34;;;12.86;100.00
44255;BME280;29933;47.226;15.734;2022-09-01T04:48:40;96346.25;;;12.85;100.00
44255;BME280;29933;47.226;15.734;2022-09-01T04:51:08;96344.72;;;12.80;100.00
44255;BME280;29933;47.226;15.734;2022-09-01T04:53:35;96343.97;;;12.76;100.00
44255;BME280;29933;47.226;15.734;2022-09-01T04:56:03;96341.25;;;12.76;100.00
44255;BME280;29933;47.226;15.734;2022-09-01T04:58:29;96338.97;;;12.71;100.00
44255;BME280;29933;47.226;15.734;2022-09-01T05:00:55;96344.84;;;12.66;100.00
44255;BME280;29933;47.226;15.734;2022-09-01T05:03:21;96344.09;;;12.61;100.00
44255;BME280;29933;47.226;15.734;2022-09-01T05:05:48;96348.38;;;12.59;100.00
44255;BME280;29933;47.226;15.734;2022-09-01T05:08:17;96345.66;;;12.59;100.00
44255;BME280;29933;47.226;15.734;2022-09-01T05:10:46;96346.44;;;12.59;100.00
44255;BME280;29933;47.226;15.734;2022-09-01T05:13:18;96350.34;;;12.58;100.00
44255;BME280;29933;47.226;15.734;2022-09-01T05:15:46;96349.97;;;12.56;100.00
44255;BME280;29933;47.226;15.734;2022-09-01T05:18:16;96354.25;;;12.54;100.00
44255;BME280;29933;47.226;15.734;2022-09-01T05:20:54;96351.97;;;12.45;100.00
44255;BME280;29933;47.226;15.734;2022-09-01T05:23:23;96355.13;;;12.43;100.00
44255;BME280;29933;47.226;15.734;2022-09-01T05:25:51;96352.00;;;12.41;100.00
44255;BME280;29933;47.226;15.734;2022-09-01T05:28:20;96351.25;;;12.37;100.00
44255;BME280;29933;47.226;15.734;2022-09-01T05:30:50;96346.19;;;12.43;100.00
44255;BME280;29933;47.226;15.734;2022-09-01T05:33:19;96338.00;;;12.46;100.00
44255;BME280;29933;47.226;15.734;2022-09-01T05:35:55;96351.19;;;12.48;100.00
44255;BME280;29933;47.226;15.734;2022-09-01T05:38:21;96341.81;;;12.53;100.00
44255;BME280;29933;47.226;15.734;2022-09-01T05:41:16;96347.25;;;12.56;100.00
44255;BME280;29933;47.226;15.734;2022-09-01T05:43:46;96336.72;;;12.58;100.00
44255;BME280;29933;47.226;15.734;2022-09-01T05:46:17;96343.72;;;12.59;100.00
44255;BME280;29933;47.226;15.734;2022-09-01T05:48:45;96345.63;;;12.62;100.00
44255;BME280;29933;47.226;15.734;2022-09-01T05:51:24;96344.81;;;12.69;100.00
44255;BME280;29933;47.226;15.734;2022-09-01T05:53:57;96353.34;;;12.75;100.00
44255;BME280;29933;47.226;15.734;2022-09-01T05:56:25;96344.75;;;12.76;100.00
44255;BME280;29933;47.226;15.734;2022-09-01T05:58:52;96351.75;;;12.77;100.00
44255;BME280;29933;47.226;15.734;2022-09-01T06:01:19;96351.72;;;12.81;100.00
44255;BME280;29933;47.226;15.734;2022-09-01T06:04:07;96354.03;;;12.86;100.00
44255;BME280;29933;47.226;15.734;2022-09-01T06:06:42;96358.25;;;12.94;100.00
44255;BME280;29933;47.226;15.734;2022-09-01T06:09:12;96346.97;;;12.92;100.00
44255;BME280;29933;47.226;15.734;2022-09-01T06:11:39;96353.22;;;12.89;100.00
44255;BME280;29933;47.226;15.734;2022-09-01T06:14:05;96354.78;;;12.90;100.00
44255;BME280;29933;47.226;15.734;2022-09-01T06:16:35;96354.78;;;12.90;100.00
44255;BME280;29933;47.226;15.734;2022-09-01T06:19:03;96353.22;;;12.89;100.00
44255;BME280;29933;47.226;15.734;2022-09-01T06:21:29;96350.94;;;12.84;100.00
44255;BME280;29933;47.226;15.734;2022-09-01T06:23:57;96351.66;;;12.92;100.00
44255;BME280;29933;47.226;15.734;2022-09-01T06:26:28;96351.22;;;12.97;100.00
44255;BME280;29933;47.226;15.734;2022-09-01T06:28:56;96354.28;;;13.03;100.00
44255;BME280;29933;47.226;15.734;2022-09-01T06:31:24;96351.09;;;13.11;100.00
44255;BME280;29933;47.226;15.734;2022-09-01T06:33:52;96356.88;;;13.17;100.00
44255;BME280;29933;47.226;15.734;2022-09-01T06:36:22;96352.91;;;13.25;100.00
44255;BME280;29933;47.226;15.734;2022-09-01T06:38:52;96352.03;;;13.36;100.00
44255;BME280;29933;47.226;15.734;2022-09-01T06:41:19;96355.47;;;13.43;100.00
44255;BME280;29933;47.226;15.734;2022-09-01T06:43:47;96362.81;;;13.50;100.00
44255;BME280;29933;47.226;15.734;2022-09-01T06:46:17;96361.47;;;13.66;100.00
44255;BME280;29933;47.226;15.734;2022-09-01T06:48:45;96365.63;;;13.77;100.00
44255;BME280;29933;47.226;15.734;2022-09-01T06:51:16;96367.50;;;13.84;100.00
44255;BME280;29933;47.226;15.734;2022-09-01T06:53:43;96364.25;;;13.97;100.00
44255;BME280;29933;47.226;15.734;2022-09-01T06:56:10;96364.47;;;14.09;100.00
44255;BME280;29933;47.226;15.734;2022-09-01T06:58:41;96368.50;;;14.29;100.00
44255;BME280;29933;47.226;15.734;2022-09-01T07:01:29;96369.34;;;14.53;100.00
44255;BME280;29933;47.226;15.734;2022-09-01T07:03:57;96370.66;;;14.72;100.00
44255;BME280;29933;47.226;15.734;2022-09-01T07:06:46;96374.34;;;14.85;100.00
44255;BME280;29933;47.226;15.734;2022-09-01T07:09:20;96370.44;;;15.10;100.00
44255;BME280;29933;47.226;15.734;2022-09-01T07:11:46;96369.88;;;15.43;100.00
44255;BME280;29933;47.226;15.734;2022-09-01T07:14:11;96379.59;;;15.67;100.00
44255;BME280;29933;47.226;15.734;2022-09-01T07:16:42;96377.97;;;15.94;100.00
44255;BME280;29933;47.226;15.734;2022-09-01T07:19:12;96384.19;;;16.14;100.00
44255;BME280;29933;47.226;15.734;2022-09-01T07:21:43;96390.28;;;16.22;100.00
44255;BME280;29933;47.226;15.734;2022-09-01T07:24:30;96388.41;;;16.19;100.00
44255;BME280;29933;47.226;15.734;2022-09-01T07:26:56;96389.16;;;16.19;100.00
44255;BME280;29933;47.226;15.734;2022-09-01T07:29:22;96397.53;;;16.32;100.00
44255;BME280;29933;47.226;15.734;2022-09-01T07:32:01;96395.41;;;16.40;100.00
44255;BME280;29933;47.226;15.734;2022-09-01T07:34:50;96387.81;;;16.64;100.00
44255;BME280;29933;47.226;15.734;2022-09-01T07:37:19;96383.28;;;16.74;100.00
44255;BME280;29933;47.226;15.734;2022-09-01T07:39:51;96392.25;;;16.75;100.00
44255;BME280;29933;47.226;15.734;2022-09-01T07:42:36;96388.47;;;16.68;100.00
44255;BME280;29933;47.226;15.734;2022-09-01T07:45:09;96393.38;;;16.77;100.00
44255;BME280;29933;47.226;15.734;2022-09-01T07:48:05;96400.88;;;16.93;100.00
44255;BME280;29933;47.226;15.734;2022-09-01T07:50:46;96395.81;;;17.08;100.00
44255;BME280;29933;47.226;15.734;2022-09-01T07:53:52;96395.09;;;17.37;100.00
44255;BME280;29933;47.226;15.734;2022-09-01T07:56:20;96397.38;;;17.72;100.00
44255;BME280;29933;47.226;15.734;2022-09-01T07:58:50;96395.75;;;18.04;100.00
44255;BME280;29933;47.226;15.734;2022-09-01T08:01:23;96392.13;;;18.20;100.00
44255;BME280;29933;47.226;15.734;2022-09-01T08:03:56;96387.69;;;18.39;100.00
44255;BME280;29933;47.226;15.734;2022-09-01T08:06:44;96394.13;;;18.32;98.46
44255;BME280;29933;47.226;15.734;2022-09-01T08:09:10;96392.38;;;18.38;100.00
44255;BME280;29933;47.226;15.734;2022-09-01T08:11:56;96396.28;;;18.54;97.06
44255;BME280;29933;47.226;15.734;2022-09-01T08:14:42;96394.94;;;18.58;100.00
44255;BME280;29933;47.226;15.734;2022-09-01T08:17:08;96390.75;;;18.41;99.98
44255;BME280;29933;47.226;15.734;2022-09-01T08:19:33;96392.38;;;18.25;100.00
44255;BME280;29933;47.226;15.734;2022-09-01T08:22:17;96394.56;;;18.18;100.00
44255;BME280;29933;47.226;15.734;2022-09-01T08:25:09;96393.81;;;18.30;100.00
44255;BME280;29933;47.226;15.734;2022-09-01T08:27:39;96408.31;;;18.18;100.00
44255;BME280;29933;47.226;15.734;2022-09-01T08:30:07;96409.34;;;17.94;100.00
44255;BME280;29933;47.226;15.734;2022-09-01T08:32:45;96408.16;;;17.79;100.00
44255;BME280;29933;47.226;15.734;2022-09-01T08:35:12;96402.22;;;17.80;100.00
44255;BME280;29933;47.226;15.734;2022-09-01T08:37:40;96399.44;;;17.97;100.00
44255;BME280;29933;47.226;15.734;2022-09-01T08:40:21;96402.38;;;18.19;100.00
44255;BME280;29933;47.226;15.734;2022-09-01T08:45:54;96405.81;;;18.49;100.00
44255;BME280;29933;47.226;15.734;2022-09-01T08:49:01;96411.13;;;18.69;100.00
44255;BME280;29933;47.226;15.734;2022-09-01T08:51:45;96417.75;;;18.85;100.00
44255;BME280;29933;47.226;15.734;2022-09-01T08:58:05;96413.56;;;18.93;100.00
44255;BME280;29933;47.226;15.734;2022-09-01T09:00:38;96410.25;;;19.11;100.00
44255;BME280;29933;47.226;15.734;2022-09-01T09:06:32;96407.16;;;19.57;100.00
44255;BME280;29933;47.226;15.734;2022-09-01T09:09:11;96408.25;;;19.95;100.00
44255;BME280;29933;47.226;15.734;2022-09-01T09:17:33;96394.44;;;20.39;90.46
44255;BME280;29933;47.226;15.734;2022-09-01T09:20:19;96396.00;;;20.18;91.22
44255;BME280;29933;47.226;15.734;2022-09-01T09:22:44;96396.72;;;19.87;95.30
44255;BME280;29933;47.226;15.734;2022-09-01T09:25:40;96390.81;;;19.40;96.06
44255;BME280;29933;47.226;15.734;2022-09-01T09:28:06;96394.06;;;19.13;93.25
44255;BME280;29933;47.226;15.734;2022-09-01T09:31:31;96400.22;;;19.04;95.98
44255;BME280;29933;47.226;15.734;2022-09-01T09:34:37;96399.44;;;19.17;100.00
44255;BME280;29933;47.226;15.734;2022-09-01T09:40:33;96388.03;;;19.40;100.00
44255;BME280;29933;47.226;15.734;2022-09-01T09:43:02;96390.91;;;19.50;100.00
44255;BME280;29933;47.226;15.734;2022-09-01T09:45:36;96386.59;;;19.49;100.00
44255;BME280;29933;47.226;15.734;2022-09-01T09:48:29;96388.72;;;19.32;98.87
44255;BME280;29933;47.226;15.734;2022-09-01T09:50:55;96390.41;;;19.29;100.00
44255;BME280;29933;47.226;15.734;2022-09-01T09:55:58;96392.81;;;19.27;100.00
44255;BME280;29933;47.226;15.734;2022-09-01T09:58:33;96379.03;;;19.27;97.77
44255;BME280;29933;47.226;15.734;2022-09-01T10:01:46;96379.25;;;19.33;95.85
44255;BME280;29933;47.226;15.734;2022-09-01T10:03:58;96382.34;;;19.35;98.99
44255;BME280;29933;47.226;15.734;2022-09-01T10:07:22;96377.81;;;19.41;99.61
44255;BME280;29933;47.226;15.734;2022-09-01T10:12:55;96376.09;;;19.56;100.00
44255;BME280;29933;47.226;15.734;2022-09-01T10:15:27;96367.31;;;19.49;97.46
44255;BME280;29933;47.226;15.734;2022-09-01T10:17:57;96365.78;;;19.83;100.00
44255;BME280;29933;47.226;15.734;2022-09-01T10:20:28;96361.25;;;20.20;98.37
44255;BME280;29933;47.226;15.734;2022-09-01T10:22:54;96360.72;;;20.35;99.21
44255;BME280;29933;47.226;15.734;2022-09-01T10:25:41;96357.84;;;20.38;94.39
44255;BME280;29933;47.226;15.734;2022-09-01T10:28:28;96350.19;;;20.43;95.65
44255;BME280;29933;47.226;15.734;2022-09-01T10:30:56;96348.91;;;20.34;87.79
44255;BME280;29933;47.226;15.734;2022-09-01T10:33:23;96342.22;;;20.13;81.64
44255;BME280;29933;47.226;15.734;2022-09-01T10:35:52;96350.22;;;20.20;79.64
44255;BME280;29933;47.226;15.734;2022-09-01T10:38:27;96341.66;;;20.59;85.83
44255;BME280;29933;47.226;15.734;2022-09-01T10:40:57;96344.34;;;20.72;81.52
44255;BME280;29933;47.226;15.734;2022-09-01T10:43:51;96345.13;;;20.73;77.41
44255;BME280;29933;47.226;15.734;2022-09-01T10:48:47;96349.66;;;20.66;79.28
44255;BME280;29933;47.226;15.734;2022-09-01T10:53:42;96353.03;;;20.61;79.74
44255;BME280;29933;47.226;15.734;2022-09-01T11:04:06;96369.19;;;20.18;78.91
44255;BME280;29933;47.226;15.734;2022-09-01T11:06:45;96366.53;;;20.05;79.50
44255;BME280;29933;47.226;15.734;2022-09-01T11:14:28;96356.91;;;19.88;74.22
44255;BME280;29933;47.226;15.734;2022-09-01T11:17:23;96358.72;;;20.35;70.11
44255;BME280;29933;47.226;15.734;2022-09-01T11:36:35;96354.44;;;20.34;64.91
44255;BME280;29933;47.226;15.734;2022-09-01T11:39:06;96351.25;;;20.36;68.84
44255;BME280;29933;47.226;15.734;2022-09-01T11:44:48;96353.69;;;20.12;74.82
44255;BME280;29933;47.226;15.734;2022-09-01T11:47:28;96359.34;;;20.08;75.69
44255;BME280;29933;47.226;15.734;2022-09-01T11:50:01;96353.34;;;20.00;75.51
44255;BME280;29933;47.226;15.734;2022-09-01T11:52:35;96352.38;;;19.94;75.04
44255;BME280;29933;47.226;15.734;2022-09-01T11:55:05;96358.91;;;19.87;75.54
44255;BME280;29933;47.226;15.734;2022-09-01T11:57:38;96356.84;;;19.79;74.23
44255;BME280;29933;47.226;15.734;2022-09-01T12:00:12;96360.34;;;19.57;76.53
44255;BME280;29933;47.226;15.734;2022-09-01T12:02:48;96358.13;;;19.30;76.52
44255;BME280;29933;47.226;15.734;2022-09-01T12:05:28;96357.97;;;19.11;80.52
44255;BME280;29933;47.226;15.734;2022-09-01T12:07:55;96357.09;;;19.01;80.08
44255;BME280;29933;47.226;15.734;2022-09-01T12:10:35;96354.56;;;18.94;82.17
44255;BME280;29933;47.226;15.734;2022-09-01T12:13:22;96360.84;;;18.94;85.51
44255;BME280;29933;47.226;15.734;2022-09-01T12:15:59;96360.72;;;18.98;85.19
44255;BME280;29933;47.226;15.734;2022-09-01T12:18:29;96359.94;;;19.10;94.19
44255;BME280;29933;47.226;15.734;2022-09-01T12:20:58;96369.97;;;19.04;75.50
44255;BME280;29933;47.226;15.734;2022-09-01T12:23:38;96361.06;;;19.00;77.27
44255;BME280;29933;47.226;15.734;2022-09-01T12:26:26;96356.44;;;18.97;75.40
44255;BME280;29933;47.226;15.734;2022-09-01T12:28:53;96371.06;;;19.07;79.14
44255;BME280;29933;47.226;15.734;2022-09-01T12:31:23;96362.69;;;19.10;85.40
44255;BME280;29933;47.226;15.734;2022-09-01T12:33:50;96372.81;;;19.14;83.55
44255;BME280;29933;47.226;15.734;2022-09-01T12:36:29;96367.53;;;19.06;80.54
44255;BME280;29933;47.226;15.734;2022-09-01T12:39:17;96369.09;;;19.07;85.56
44255;BME280;29933;47.226;15.734;2022-09-01T12:41:44;96368.06;;;19.14;86.57
44255;BME280;29933;47.226;15.734;2022-09-01T12:44:33;96354.94;;;19.18;87.80
44255;BME280;29933;47.226;15.734;2022-09-01T12:47:09;96361.00;;;19.26;84.31
44255;BME280;29933;47.226;15.734;2022-09-01T12:49:41;96361.41;;;19.37;81.02
44255;BME280;29933;47.226;15.734;2022-09-01T12:54:48;96350.78;;;19.49;73.01
44255;BME280;29933;47.226;15.734;2022-09-01T12:58:20;96358.97;;;19.39;77.66
44255;BME280;29933;47.226;15.734;2022-09-01T13:01:05;96362.00;;;19.32;84.76
44255;BME280;29933;47.226;15.734;2022-09-01T13:03:33;96362.22;;;19.25;83.80
44255;BME280;29933;47.226;15.734;2022-09-01T13:06:00;96364.84;;;19.29;86.11
44255;BME280;29933;47.226;15.734;2022-09-01T13:08:33;96362.00;;;19.32;89.10
44255;BME280;29933;47.226;15.734;2022-09-01T13:11:08;96361.31;;;19.28;76.88
44255;BME280;29933;47.226;15.734;2022-09-01T13:13:34;96360.75;;;19.33;80.55
44255;BME280;29933;47.226;15.734;2022-09-01T13:16:01;96366.53;;;19.26;77.97
44255;BME280;29933;47.226;15.734;2022-09-01T13:18:32;96366.94;;;19.24;77.76
44255;BME280;29933;47.226;15.734;2022-09-01T13:20:59;96361.56;;;19.21;68.48
44255;BME280;29933;47.226;15.734;2022-09-01T13:23:25;96369.16;;;19.17;70.52
44255;BME280;29933;47.226;15.734;2022-09-01T13:25:51;96361.88;;;19.23;71.59
44255;BME280;29933;47.226;15.734;2022-09-01T13:28:17;96366.25;;;19.33;66.06
44255;BME280;29933;47.226;15.734;2022-09-01T13:30:44;96367.22;;;19.39;59.26
44255;BME280;29933;47.226;15.734;2022-09-01T13:33:11;96367.50;;;19.54;61.04
44255;BME280;29933;47.226;15.734;2022-09-01T13:35:37;96364.28;;;19.69;60.49
44255;BME280;29933;47.226;15.734;2022-09-01T13:38:03;96364.56;;;19.84;57.16
44255;BME280;29933;47.226;15.734;2022-09-01T13:40:29;96367.50;;;19.89;57.09
44255;BME280;29933;47.226;15.734;2022-09-01T13:42:55;96377.31;;;19.90;58.75
44255;BME280;29933;47.226;15.734;2022-09-01T13:45:22;96365.81;;;19.92;58.09
44255;BME280;29933;47.226;15.734;2022-09-01T13:47:50;96368.56;;;19.92;58.17
44255;BME280;29933;47.226;15.734;2022-09-01T13:50:17;96369.63;;;19.85;63.00
44255;BME280;29933;47.226;15.734;2022-09-01T13:52:47;96369.06;;;19.78;64.61
44255;BME280;29933;47.226;15.734;2022-09-01T13:55:17;96367.28;;;19.62;60.71
44255;BME280;29933;47.226;15.734;2022-09-01T13:57:43;96369.97;;;19.52;64.13
44255;BME280;29933;47.226;15.734;2022-09-01T14:00:14;96373.41;;;19.44;62.26
44255;BME280;29933;47.226;15.734;2022-09-01T14:02:44;96364.94;;;19.38;61.89
44255;BME280;29933;47.226;15.734;2022-09-01T14:05:20;96372.31;;;19.41;62.30
44255;BME280;29933;47.226;15.734;2022-09-01T14:07:47;96366.59;;;19.35;64.20
44255;BME280;29933;47.226;15.734;2022-09-01T14:10:15;96369.69;;;19.37;65.41
44255;BME280;29933;47.226;15.734;2022-09-01T14:12:42;96378.34;;;19.36;63.64
44255;BME280;29933;47.226;15.734;2022-09-01T14:15:09;96379.25;;;19.33;64.98
44255;BME280;29933;47.226;15.734;2022-09-01T14:17:36;96374.09;;;19.22;59.58